KERO2: Robert S. Kerr Lock & Dam & Reservoir (L&D 15)

Data processed at Sun May 28 2017 22:03


All information presented herein is the property of the government of the United States of America and may be revised or deleted at any time without prior notice.
Dissemination of this information without the expressed written consent of the Public Affairs Office, Tulsa District U.S. Army Corps of Engineers is strictly prohibited.
These data are gathered electronically and, as presented, have not undergone any form of quality control. These data are not guaranteed to be valid or correct.
Go to home page.
Go to station list.
Go to home page.

Upstream stations:

Downstream station:
Previous Day
Next Day
Current Day
    
SHEF ID:       KERO2     Robert S. Kerr Lock & Dam
STATION TYPE:  NAVIGATION LOCK
Normal Pool:  Bottom =   458.00, Top =   460.00

               PRECIP ELEVATION   STORAGE   TW-ELEV    INFLOW   RELEASE  AIR-TEMP  WIND-DIRWIND-SPEED REL-HUMID SOLAR-RAD   VOLTAGE  BAT-LOAD
                   in        ft     ac-ft        ft       cfs       cfs         F       deg       mph         %      W/m2      volt      volt
              Ccp-Rev   Ccp-Rev   Ccp-Rev   Ccp-Rev  Regi-Rev  Regi-Rev   Ccp-Rev   Ccp-Rev   Ccp-Rev   Ccp-Rev   Ccp-Rev   Ccp-Rev   Ccp-Rev
(US/Central)
05/28 00:00      0.05    459.85    519225    427.31      -901      -901     74.07    276.60      8.55     82.48      0.00     13.90     13.24
05/28 01:00      0.00    459.83    518363    426.76      -901      -901     73.83    315.80      4.08     89.67      0.00     13.89     13.42
05/28 02:00      0.00    459.90    521380    426.50      -901      -901     73.96    347.40      1.76     88.89      0.00     13.87     13.42
05/28 03:00      0.00    459.93    522673    426.37      -901      -901     73.08    267.90      4.41     89.68      0.00     13.87     13.30
05/28 04:00      0.01    459.81    517501    426.38      -901      -901     72.30    274.40      6.35     96.40      0.00     13.88     13.24
05/28 05:00      0.00    459.88    520518    426.31      -901      -901     70.77     51.10      0.57    100.24      0.00     13.86     13.42
05/28 06:00      0.00    459.90    521380    426.39      -901      -901     70.99    265.50      0.55    100.31      0.00     13.86     13.30
05/28 07:00      0.00    459.89    520949    426.20      -901      -901     70.90    315.70      3.52    100.07      8.00     13.87     13.24
05/28 08:00      0.00    459.96    523966    426.24      -901      -901     70.88    282.90      8.57     97.37    101.00     13.87     13.42
05/28 09:00      0.00    459.87    520087    426.88      -901      -901     71.33    280.70      5.18     91.28    233.00     13.85     13.48
05/28 10:00      0.00    459.85    519225    427.06      -901      -901     73.53    255.30      3.12     88.72    233.00     13.85     13.30
05/28 11:00      0.00    459.84    518794    427.16      -901      -901     73.31    216.60      7.13     83.53    394.00     13.85     13.30
05/28 12:00      0.00    459.82    517932    427.18      -901      -901     76.17    211.50      8.15     73.94    975.00     13.85     13.30
05/28 13:00      0.00    459.80    517070    427.21      -901      -901     78.13    218.70      8.16     69.72   1052.00     13.86     13.30
05/28 14:00      0.00    459.80    517070    427.25      -901      -901     81.64    260.00      7.06     51.16   1050.00     13.86     13.30
05/28 15:00      0.00    459.76    515346    427.27      -901      -901     81.54    288.60     10.16     54.52    848.00     13.86     13.30
05/28 16:00      0.00    459.75    514915    427.33      -901      -901     82.85    297.30      7.72     45.05    787.00     13.88     13.30
05/28 17:00      0.00    459.73    514053    427.31      -901      -901     81.86    296.80      8.50     45.24    816.00     13.87     13.42
05/28 18:00      0.00    459.67    511467    427.31      -901      -901     81.63    312.20      7.98     43.34    582.00     13.89     13.30
05/28 19:00      0.00    459.66    511036    427.31      -901      -901     80.44    311.40      6.85     49.02    382.00     13.88     13.42
05/28 20:00      0.00    459.63    509743    427.32      -901      -901     77.45    356.10      3.80     59.21    149.00     13.89     13.24
05/28 21:00      0.00    459.60    508450    427.33      -901      -901     74.07    314.50      2.19     64.59      8.00     13.86     13.42
05/28 22:00      0.00    459.56    506726    427.30      ----      ----     69.01    343.20      1.81     83.33      0.00     13.86     13.18
05/28 23:00      ----      ----      ----      ----      ----      ----      ----      ----      ----      ----      ----      ----      ----